createdAt,value
2019-01-13T00:00:43.304Z,99477.75
2019-01-13T00:03:14.378Z,99478.39
2019-01-13T00:05:45.304Z,99477.97
2019-01-13T00:08:16.293Z,99474.44
2019-01-13T00:10:47.261Z,99471.05
2019-01-13T00:13:18.177Z,99467.03
2019-01-13T00:15:49.154Z,99462.88
2019-01-13T00:18:20.158Z,99466.89
2019-01-13T00:20:51.068Z,99465.05
2019-01-13T00:23:22.011Z,99464.56
2019-01-13T00:25:52.937Z,99465.13
2019-01-13T00:28:24.901Z,99462.38
2019-01-13T00:30:55.884Z,99454.82
2019-01-13T00:33:26.818Z,99454.12
2019-01-13T00:35:57.856Z,99450.16
2019-01-13T00:38:28.739Z,99447.20
2019-01-13T00:40:59.694Z,99449.09
2019-01-13T00:43:30.588Z,99441.19
2019-01-13T00:46:01.506Z,99440.55
2019-01-13T00:48:32.417Z,99434.55
2019-01-13T00:51:03.418Z,99435.89
2019-01-13T00:53:34.403Z,99448.59
2019-01-13T00:56:05.377Z,99435.38
2019-01-13T00:58:36.318Z,99433.05
2019-01-13T01:01:07.238Z,99440.66
2019-01-13T01:03:38.144Z,99441.16
2019-01-13T01:06:09.289Z,99435.50
2019-01-13T01:08:40.295Z,99429.70
2019-01-13T01:11:11.283Z,99436.27
2019-01-13T01:13:43.259Z,99433.93
2019-01-13T01:16:14.180Z,99437.61
2019-01-13T01:18:45.152Z,99430.55
2019-01-13T01:21:16.061Z,99433.23
2019-01-13T01:23:46.988Z,99434.86
2019-01-13T01:26:17.905Z,99435.56
2019-01-13T01:28:48.845Z,99435.27
2019-01-13T01:31:19.800Z,99431.54
2019-01-13T01:33:50.716Z,99432.94
2019-01-13T01:36:21.622Z,99430.20
2019-01-13T01:38:52.547Z,99432.24
2019-01-13T01:41:23.479Z,99426.81
2019-01-13T01:43:54.390Z,99428.22
2019-01-13T01:46:25.324Z,99425.04
2019-01-13T01:48:56.240Z,99420.58
2019-01-13T01:51:27.156Z,99418.04
2019-01-13T01:53:58.075Z,99419.23
2019-01-13T01:56:30.178Z,99423.27
2019-01-13T01:59:01.130Z,99412.53
2019-01-13T02:01:32.051Z,99417.89
2019-01-13T02:04:02.971Z,99417.61
2019-01-13T02:06:33.915Z,99415.77
2019-01-13T02:09:06.931Z,99413.98
2019-01-13T02:11:37.852Z,99414.13
2019-01-13T02:14:08.911Z,99407.42
2019-01-13T02:16:39.828Z,99405.30
2019-01-13T02:19:10.802Z,99402.27
2019-01-13T02:21:41.712Z,99400.86
2019-01-13T02:24:12.639Z,99403.25
2019-01-13T02:26:43.565Z,99395.14
2019-01-13T02:29:14.534Z,99399.17
2019-01-13T02:31:46.537Z,99391.77
2019-01-13T02:34:17.467Z,99397.19
2019-01-13T02:36:48.918Z,99393.11
2019-01-13T02:39:19.870Z,99388.88
2019-01-13T02:41:50.798Z,99392.41
2019-01-13T02:44:21.728Z,99383.52
2019-01-13T02:46:52.662Z,99384.02
2019-01-13T02:49:23.577Z,99381.03
2019-01-13T02:51:54.534Z,99379.05
2019-01-13T02:54:25.563Z,99374.48
2019-01-13T02:56:56.508Z,99369.45
2019-01-13T02:59:27.460Z,99365.14
2019-01-13T03:01:58.386Z,99361.31
2019-01-13T03:04:29.347Z,99361.46
2019-01-13T03:07:00.260Z,99357.09
2019-01-13T03:09:31.245Z,99361.76
2019-01-13T03:12:02.180Z,99356.89
2019-01-13T03:14:33.112Z,99349.48
2019-01-13T03:17:04.042Z,99352.86
2019-01-13T03:19:34.975Z,99356.39
2019-01-13T03:22:05.886Z,99351.52
2019-01-13T03:24:38.004Z,99358.58
2019-01-13T03:27:09.022Z,99355.89
2019-01-13T03:29:39.978Z,99361.95
2019-01-13T03:32:10.926Z,99354.91
2019-01-13T03:34:42.926Z,99350.93
2019-01-13T03:37:13.826Z,99359.97
2019-01-13T03:39:44.757Z,99349.04
2019-01-13T03:42:15.736Z,99353.56
2019-01-13T03:44:46.678Z,99360.27
2019-01-13T03:47:17.583Z,99355.11
2019-01-13T03:49:48.518Z,99356.30
2019-01-13T03:52:19.420Z,99352.77
2019-01-13T03:54:50.389Z,99346.26
2019-01-13T03:57:21.291Z,99348.25
2019-01-13T03:59:52.182Z,99347.90
2019-01-13T04:02:23.115Z,99351.83
2019-01-13T04:04:54.019Z,99355.70
2019-01-13T04:07:26.042Z,99356.00
2019-01-13T04:09:56.949Z,99354.02
2019-01-13T04:12:28.032Z,99342.78
2019-01-13T04:14:58.938Z,99344.47
2019-01-13T04:17:29.905Z,99348.15
2019-01-13T04:20:00.847Z,99344.13
2019-01-13T04:22:31.805Z,99342.44
2019-01-13T04:25:02.717Z,99351.33
2019-01-13T04:27:33.674Z,99344.92
2019-01-13T04:30:05.184Z,99342.94
2019-01-13T04:32:36.174Z,99343.43
2019-01-13T04:35:07.776Z,99338.21
2019-01-13T04:37:38.722Z,99333.34
2019-01-13T04:40:09.727Z,99339.20
2019-01-13T04:42:40.696Z,99336.52
2019-01-13T04:45:11.757Z,99332.30
2019-01-13T04:47:42.697Z,99328.77
2019-01-13T04:50:13.653Z,99330.95
2019-01-13T04:52:44.549Z,99333.49
2019-01-13T04:55:15.489Z,99328.63
2019-01-13T04:57:47.573Z,99327.48
2019-01-13T05:00:19.590Z,99331.85
2019-01-13T05:02:50.522Z,99323.05
2019-01-13T05:05:21.446Z,99329.66
2019-01-13T05:07:52.362Z,99324.74
2019-01-13T05:10:23.314Z,99321.27
2019-01-13T05:12:54.207Z,99320.08
2019-01-13T05:15:25.150Z,99316.40
2019-01-13T05:17:56.085Z,99316.09
2019-01-13T05:20:28.228Z,99309.64
2019-01-13T05:22:59.141Z,99318.19
2019-01-13T05:25:31.234Z,99322.70
2019-01-13T05:28:02.137Z,99314.61
2019-01-13T05:30:33.073Z,99326.68
2019-01-13T05:33:03.980Z,99322.31
2019-01-13T05:35:34.884Z,99326.98
2019-01-13T05:38:05.819Z,99331.64
2019-01-13T05:40:36.822Z,99329.75
2019-01-13T05:43:07.812Z,99331.39
2019-01-13T05:45:38.778Z,99330.00
2019-01-13T05:48:09.709Z,99331.69
2019-01-13T05:50:40.678Z,99326.17
2019-01-13T05:53:11.700Z,99322.73
2019-01-13T05:55:42.698Z,99320.00
2019-01-13T05:58:13.609Z,99315.48
2019-01-13T06:00:44.748Z,99315.63
2019-01-13T06:03:15.654Z,99316.27
2019-01-13T06:05:46.582Z,99312.95
2019-01-13T06:08:17.507Z,99313.09
2019-01-13T06:10:48.440Z,99315.69
2019-01-13T06:13:19.353Z,99317.72
2019-01-13T06:15:50.306Z,99322.09
2019-01-13T06:18:21.219Z,99323.14
2019-01-13T06:20:52.142Z,99328.27
2019-01-13T06:23:23.037Z,99323.84
2019-01-13T06:25:53.933Z,99324.69
2019-01-13T06:28:24.849Z,99319.81
2019-01-13T06:30:55.760Z,99319.96
2019-01-13T06:33:26.673Z,99312.77
2019-01-13T06:35:59.119Z,99314.45
2019-01-13T06:38:29.980Z,99323.84
2019-01-13T06:41:00.887Z,99313.41
2019-01-13T06:43:31.780Z,99317.48
2019-01-13T06:46:02.698Z,99328.47
2019-01-13T06:48:33.632Z,99323.75
2019-01-13T06:51:04.539Z,99331.05
2019-01-13T06:53:35.436Z,99331.66
2019-01-13T06:56:06.369Z,99335.03
2019-01-13T06:58:37.307Z,99335.94
2019-01-13T07:01:08.242Z,99329.63
2019-01-13T07:03:39.152Z,99333.80
2019-01-13T07:06:10.072Z,99340.02
2019-01-13T07:08:41.008Z,99330.37
2019-01-13T07:11:11.928Z,99343.15
2019-01-13T07:13:42.817Z,99344.84
2019-01-13T07:16:15.639Z,99340.55
2019-01-13T07:18:46.679Z,99339.45
2019-01-13T07:21:17.653Z,99339.84
2019-01-13T07:23:48.632Z,99338.41
2019-01-13T07:26:19.596Z,99345.61
2019-01-13T07:28:50.501Z,99336.22
2019-01-13T07:31:21.457Z,99333.48
2019-01-13T07:33:52.363Z,99325.03
2019-01-13T07:36:23.300Z,99324.83
2019-01-13T07:38:54.208Z,99323.48
2019-01-13T07:41:25.175Z,99320.52
2019-01-13T07:43:56.137Z,99319.47
2019-01-13T07:46:27.091Z,99319.67
2019-01-13T07:48:58.129Z,99318.88
2019-01-13T07:51:29.073Z,99313.95
2019-01-13T07:54:00.060Z,99307.25
2019-01-13T07:56:31.024Z,99302.09
2019-01-13T07:59:02.007Z,99299.45
2019-01-13T08:01:32.941Z,99297.36
2019-01-13T08:04:03.863Z,99296.02
2019-01-13T08:06:34.846Z,99292.34
2019-01-13T08:09:08.676Z,99300.14
2019-01-13T08:11:39.618Z,99296.87
2019-01-13T08:14:10.669Z,99301.13
2019-01-13T08:16:41.610Z,99301.06
2019-01-13T08:19:12.508Z,99295.11
2019-01-13T08:21:44.015Z,99294.12
2019-01-13T08:24:14.992Z,99287.64
2019-01-13T08:26:45.888Z,99303.45
2019-01-13T08:29:17.934Z,99292.05
2019-01-13T08:31:48.889Z,99285.99
2019-01-13T08:34:19.809Z,99280.61
2019-01-13T08:36:50.742Z,99283.40
2019-01-13T08:39:21.714Z,99286.72
2019-01-13T08:41:52.622Z,99278.78
2019-01-13T08:44:23.609Z,99271.47
2019-01-13T08:46:54.532Z,99277.03
2019-01-13T08:49:25.497Z,99279.38
2019-01-13T08:51:56.419Z,99273.36
2019-01-13T08:54:27.317Z,99262.46
2019-01-13T08:56:58.332Z,99254.77
2019-01-13T08:59:29.336Z,99261.13
2019-01-13T09:02:00.289Z,99257.59
2019-01-13T09:04:31.316Z,99246.36
2019-01-13T09:07:02.348Z,99244.48
2019-01-13T09:09:33.247Z,99236.78
2019-01-13T09:12:04.162Z,99239.66
2019-01-13T09:14:35.161Z,99231.41
2019-01-13T09:17:07.067Z,99227.72
2019-01-13T09:19:38.010Z,99225.49
2019-01-13T09:22:08.929Z,99215.41
2019-01-13T09:24:39.979Z,99214.45
2019-01-13T09:27:10.867Z,99209.59
2019-01-13T09:29:42.502Z,99195.52
2019-01-13T09:32:13.664Z,99198.78
2019-01-13T09:34:44.594Z,99198.00
2019-01-13T09:37:16.818Z,99194.22
2019-01-13T09:39:47.779Z,99189.80
2019-01-13T09:42:18.775Z,99192.67
2019-01-13T09:44:49.729Z,99185.42
2019-01-13T09:47:21.712Z,99176.03
2019-01-13T09:49:52.747Z,99184.43
2019-01-13T09:52:23.673Z,99169.52
2019-01-13T09:54:54.703Z,99161.84
2019-01-13T09:57:25.598Z,99168.81
2019-01-13T09:59:56.589Z,99157.52
2019-01-13T10:02:27.622Z,99148.92
2019-01-13T10:04:58.906Z,99135.54
2019-01-13T10:07:29.822Z,99124.48
2019-01-13T10:10:00.789Z,99120.96
2019-01-13T10:12:31.768Z,99126.89
2019-01-13T10:15:02.780Z,99122.05
2019-01-13T10:17:33.766Z,99115.05
2019-01-13T10:20:05.278Z,99113.19
2019-01-13T10:22:36.273Z,99105.28
2019-01-13T10:25:07.783Z,99099.23
2019-01-13T10:27:39.206Z,99093.57
2019-01-13T10:30:16.059Z,99069.61
2019-01-13T10:32:54.496Z,99057.89
2019-01-13T10:35:20.846Z,99052.72
2019-01-13T10:37:51.881Z,99048.53
2019-01-13T10:40:25.097Z,99048.03
2019-01-13T10:42:56.089Z,99036.56
2019-01-13T10:45:27.238Z,99031.14
2019-01-13T10:47:58.245Z,99027.02
2019-01-13T10:50:33.051Z,99027.02
2019-01-13T10:53:08.743Z,99012.56
2019-01-13T10:55:39.754Z,99009.05
2019-01-13T10:58:10.749Z,99000.14
2019-01-13T11:00:41.781Z,98989.23
2019-01-13T11:03:12.761Z,98992.95
2019-01-13T11:05:43.811Z,98983.20
2019-01-13T11:08:14.790Z,98978.33
2019-01-13T11:10:45.830Z,98964.39
2019-01-13T11:13:16.835Z,98961.69
2019-01-13T11:15:47.758Z,98958.16
2019-01-13T11:18:18.737Z,98953.62
2019-01-13T11:20:50.086Z,98940.69
2019-01-13T11:23:21.068Z,98940.03
2019-01-13T11:25:52.075Z,98934.49
2019-01-13T11:28:22.971Z,98931.98
2019-01-13T11:30:53.962Z,98928.46
2019-01-13T11:33:24.929Z,98928.94
2019-01-13T11:35:55.952Z,98922.56
2019-01-13T11:38:26.869Z,98907.09
2019-01-13T11:40:57.844Z,98905.58
2019-01-13T11:43:28.768Z,98900.88
2019-01-13T11:45:59.688Z,98885.45
2019-01-13T11:48:30.637Z,98888.47
2019-01-13T11:51:01.569Z,98872.85
2019-01-13T11:53:32.514Z,98870.66
2019-01-13T11:56:04.470Z,98863.61
2019-01-13T11:58:35.414Z,98853.70
2019-01-13T12:01:07.266Z,98843.11
2019-01-13T12:03:38.219Z,98836.90
2019-01-13T12:06:09.150Z,98839.58
2019-01-13T12:08:40.093Z,98826.15
2019-01-13T12:11:11.184Z,98830.34
2019-01-13T12:13:42.173Z,98822.58
2019-01-13T12:16:13.083Z,98813.84
2019-01-13T12:18:44.091Z,98807.47
2019-01-13T12:21:15.154Z,98804.27
2019-01-13T12:23:46.067Z,98794.20
2019-01-13T12:26:16.999Z,98785.80
2019-01-13T12:28:47.999Z,98782.95
2019-01-13T12:31:18.951Z,98780.60
2019-01-13T12:33:49.853Z,98775.23
2019-01-13T12:36:20.863Z,98770.70
2019-01-13T12:38:51.788Z,98761.63
2019-01-13T12:41:22.793Z,98759.28
2019-01-13T12:43:53.872Z,98744.34
2019-01-13T12:46:24.872Z,98750.38
2019-01-13T12:48:55.795Z,98738.80
2019-01-13T12:51:26.759Z,98735.27
2019-01-13T12:53:57.687Z,98726.55
2019-01-13T12:56:28.650Z,98720.84
2019-01-13T12:58:59.622Z,98720.16
2019-01-13T13:01:30.558Z,98711.61
2019-01-13T13:04:01.585Z,98701.03
2019-01-13T13:06:33.557Z,98696.83
2019-01-13T13:09:08.441Z,98690.45
2019-01-13T13:11:39.657Z,98683.06
2019-01-13T13:14:10.700Z,98680.70
2019-01-13T13:16:41.690Z,98671.81
2019-01-13T13:19:12.938Z,98660.89
2019-01-13T13:21:43.901Z,98652.84
2019-01-13T13:24:15.873Z,98652.00
2019-01-13T13:26:46.794Z,98636.55
2019-01-13T13:29:17.796Z,98634.03
2019-01-13T13:31:48.706Z,98628.66
2019-01-13T13:34:19.700Z,98619.59
2019-01-13T13:36:50.747Z,98611.86
2019-01-13T13:39:21.765Z,98602.64
2019-01-13T13:41:52.688Z,98594.27
2019-01-13T13:44:23.609Z,98582.03
2019-01-13T13:46:54.517Z,98579.50
2019-01-13T13:49:25.454Z,98579.01
2019-01-13T13:51:56.353Z,98571.95
2019-01-13T13:54:27.270Z,98566.59
2019-01-13T13:56:58.430Z,98562.91
2019-01-13T13:59:29.381Z,98558.55
2019-01-13T14:02:00.351Z,98553.52
2019-01-13T14:04:31.548Z,98541.44
2019-01-13T14:07:02.566Z,98547.48
2019-01-13T14:09:33.504Z,98532.56
2019-01-13T14:12:04.497Z,98531.73
2019-01-13T14:14:35.419Z,98527.53
2019-01-13T14:17:06.370Z,98514.79
2019-01-13T14:19:37.305Z,98511.28
2019-01-13T14:22:08.293Z,98505.22
2019-01-13T14:24:39.213Z,98501.03
2019-01-13T14:27:10.153Z,98494.33
2019-01-13T14:29:41.106Z,98486.13
2019-01-13T14:32:12.111Z,98478.40
2019-01-13T14:34:43.140Z,98477.56
2019-01-13T14:37:14.135Z,98471.50
2019-01-13T14:39:48.887Z,98460.10
2019-01-13T14:42:18.075Z,98451.18
2019-01-13T14:44:49.135Z,98450.17
2019-01-13T14:47:20.114Z,98438.59
2019-01-13T14:49:51.325Z,98435.59
2019-01-13T14:52:22.334Z,98435.97
2019-01-13T14:54:53.453Z,98427.23
2019-01-13T14:57:24.463Z,98417.86
2019-01-13T14:59:55.390Z,98410.17
2019-01-13T15:02:26.296Z,98402.63
2019-01-13T15:04:57.219Z,98398.09
2019-01-13T15:07:28.294Z,98391.61
2019-01-13T15:10:00.184Z,98372.00
2019-01-13T15:12:31.187Z,98372.84
2019-01-13T15:15:06.922Z,98361.96
2019-01-13T15:17:38.531Z,98357.44
2019-01-13T15:20:11.975Z,98347.03
2019-01-13T15:22:43.007Z,98347.89
2019-01-13T15:25:17.036Z,98335.33
2019-01-13T15:27:48.761Z,98326.59
2019-01-13T15:30:38.850Z,98318.39
2019-01-13T15:33:10.837Z,98318.22
2019-01-13T15:35:42.872Z,98311.69
2019-01-13T15:38:13.843Z,98297.11
2019-01-13T15:40:44.768Z,98295.09
2019-01-13T15:43:15.778Z,98277.83
2019-01-13T15:45:46.666Z,98281.84
2019-01-13T15:48:17.683Z,98271.95
2019-01-13T15:50:48.764Z,98267.42
2019-01-13T15:53:19.724Z,98263.73
2019-01-13T15:55:50.700Z,98246.65
2019-01-13T15:58:21.660Z,98240.29
2019-01-13T16:00:52.653Z,98234.40
2019-01-13T16:03:23.608Z,98224.83
2019-01-13T16:05:54.519Z,98221.49
2019-01-13T16:08:25.423Z,98216.45
2019-01-13T16:10:56.403Z,98209.07
2019-01-13T16:13:27.400Z,98203.05
2019-01-13T16:15:58.331Z,98205.02
2019-01-13T16:18:29.264Z,98193.45
2019-01-13T16:21:00.262Z,98180.22
2019-01-13T16:23:31.234Z,98170.65
2019-01-13T16:26:03.320Z,98168.33
2019-01-13T16:28:34.238Z,98161.77
2019-01-13T16:31:05.242Z,98158.10
2019-01-13T16:33:37.397Z,98153.57
2019-01-13T16:36:08.366Z,98148.03
2019-01-13T16:38:39.316Z,98139.66
2019-01-13T16:41:10.319Z,98140.99
2019-01-13T16:43:41.290Z,98127.22
2019-01-13T16:46:12.236Z,98120.84
2019-01-13T16:48:43.289Z,98124.00
2019-01-13T16:51:14.222Z,98115.77
2019-01-13T16:53:45.207Z,98111.75
2019-01-13T16:56:16.109Z,98109.66
2019-01-13T16:58:47.127Z,98101.09
2019-01-13T17:01:18.399Z,98110.16
2019-01-13T17:03:49.428Z,98099.91
2019-01-13T17:06:20.657Z,98095.52
2019-01-13T17:08:51.664Z,98085.58
2019-01-13T17:11:22.694Z,98084.75
2019-01-13T17:13:53.592Z,98088.41
2019-01-13T17:16:24.506Z,98071.62
2019-01-13T17:18:55.443Z,98072.23
2019-01-13T17:21:26.421Z,98057.83
2019-01-13T17:23:58.860Z,98053.62
2019-01-13T17:26:30.067Z,98053.26
2019-01-13T17:29:00.992Z,98048.03
2019-01-13T17:31:33.034Z,98045.48
2019-01-13T17:34:04.314Z,98037.58
2019-01-13T17:36:35.305Z,98023.14
2019-01-13T17:39:08.147Z,98018.46
2019-01-13T17:41:39.341Z,98010.36
2019-01-13T17:44:10.264Z,98000.45
2019-01-13T17:46:41.200Z,97997.86
2019-01-13T17:49:12.132Z,97988.98
2019-01-13T17:51:43.072Z,97984.77
2019-01-13T17:54:14.135Z,97973.00
2019-01-13T17:56:45.152Z,97969.11
2019-01-13T17:59:16.108Z,97965.87
2019-01-13T18:01:51.025Z,97958.59
2019-01-13T18:04:21.962Z,97952.20
2019-01-13T18:06:52.900Z,97942.37
2019-01-13T18:09:23.787Z,97951.39
2019-01-13T18:11:54.738Z,97946.19
2019-01-13T18:14:25.690Z,97945.11
2019-01-13T18:16:56.633Z,97945.76
2019-01-13T18:19:27.605Z,97947.94
2019-01-13T18:21:58.572Z,97937.77
2019-01-13T18:24:29.525Z,97923.83
2019-01-13T18:27:00.467Z,97928.31
2019-01-13T18:29:31.446Z,97909.31
2019-01-13T18:32:02.393Z,97912.64
2019-01-13T18:34:33.297Z,97909.95
2019-01-13T18:37:04.242Z,97904.33
2019-01-13T18:39:35.148Z,97902.80
2019-01-13T18:42:06.110Z,97896.84
2019-01-13T18:44:37.028Z,97891.56
2019-01-13T18:47:08.000Z,97895.21
2019-01-13T18:49:38.989Z,97891.31
2019-01-13T18:52:09.889Z,97883.76
2019-01-13T18:54:40.891Z,97881.00
2019-01-13T18:57:11.796Z,97878.63
2019-01-13T18:59:42.778Z,97866.16
2019-01-13T19:02:13.710Z,97869.28
2019-01-13T19:04:44.741Z,97864.23
2019-01-13T19:07:15.653Z,97856.99
2019-01-13T19:09:46.558Z,97850.78
2019-01-13T19:12:17.475Z,97840.16
2019-01-13T19:14:54.726Z,97829.20
2019-01-13T19:17:28.592Z,97827.98
2019-01-13T19:20:02.271Z,97826.25
2019-01-13T19:22:35.000Z,97808.14
2019-01-13T19:25:12.630Z,97799.17
2019-01-13T19:27:43.601Z,97806.02
2019-01-13T19:30:15.255Z,97796.52
2019-01-13T19:32:46.259Z,97795.17
2019-01-13T19:35:17.337Z,97786.72
2019-01-13T19:37:48.328Z,97791.14
2019-01-13T19:40:19.403Z,97776.99
2019-01-13T19:42:50.397Z,97777.82
2019-01-13T19:45:22.010Z,97777.11
2019-01-13T19:47:53.140Z,97779.09
2019-01-13T19:50:26.205Z,97770.63
2019-01-13T19:52:57.234Z,97780.47
2019-01-13T19:55:28.168Z,97773.95
2019-01-13T19:57:59.212Z,97786.48
2019-01-13T20:00:35.180Z,97783.16
2019-01-13T20:03:06.837Z,97783.59
2019-01-13T20:05:37.846Z,97791.27
2019-01-13T20:08:08.907Z,97783.71
2019-01-13T20:10:39.900Z,97763.54
2019-01-13T20:13:10.920Z,97769.12
2019-01-13T20:15:41.879Z,97781.70
2019-01-13T20:18:12.898Z,97782.48
2019-01-13T20:20:43.881Z,97769.52
2019-01-13T20:23:14.833Z,97760.22
2019-01-13T20:25:45.852Z,97742.70
2019-01-13T20:28:17.936Z,97752.30
2019-01-13T20:30:48.963Z,97749.69
2019-01-13T20:33:20.020Z,97755.06
2019-01-13T20:35:51.360Z,97748.03
2019-01-13T20:38:22.361Z,97746.22
2019-01-13T20:40:53.387Z,97752.94
2019-01-13T20:43:24.368Z,97748.52
2019-01-13T20:45:55.297Z,97741.16
2019-01-13T20:48:26.244Z,97743.77
2019-01-13T20:50:57.263Z,97749.34
2019-01-13T20:53:28.304Z,97749.22
2019-01-13T20:55:59.270Z,97744.95
2019-01-13T20:58:30.283Z,97739.18
2019-01-13T21:01:01.353Z,97741.75
2019-01-13T21:03:32.353Z,97746.37
2019-01-13T21:06:03.355Z,97747.27
2019-01-13T21:08:34.365Z,97741.44
2019-01-13T21:11:05.433Z,97729.62
2019-01-13T21:13:36.477Z,97733.59
2019-01-13T21:16:07.434Z,97726.05
2019-01-13T21:18:38.498Z,97724.90
2019-01-13T21:21:09.504Z,97723.12
2019-01-13T21:23:40.605Z,97721.45
2019-01-13T21:26:11.546Z,97717.38
2019-01-13T21:28:42.779Z,97718.95
2019-01-13T21:31:13.782Z,97721.89
2019-01-13T21:33:44.764Z,97711.86
2019-01-13T21:36:15.825Z,97704.39
2019-01-13T21:38:46.828Z,97698.57
2019-01-13T21:41:17.758Z,97704.45
2019-01-13T21:43:48.801Z,97719.09
2019-01-13T21:46:19.784Z,97713.34
2019-01-13T21:48:50.797Z,97710.02
2019-01-13T21:51:21.773Z,97704.97
2019-01-13T21:53:52.815Z,97705.29
2019-01-13T21:56:23.924Z,97705.67
2019-01-13T21:58:54.964Z,97704.08
2019-01-13T22:01:26.234Z,97696.47
2019-01-13T22:03:57.743Z,97686.69
2019-01-13T22:06:28.830Z,97689.50
2019-01-13T22:09:00.126Z,97693.01
2019-01-13T22:11:32.663Z,97694.86
2019-01-13T22:14:03.626Z,97699.47
2019-01-13T22:16:34.632Z,97693.08
2019-01-13T22:19:05.547Z,97699.79
2019-01-13T22:21:36.515Z,97693.39
2019-01-13T22:24:07.649Z,97691.28
2019-01-13T22:26:38.721Z,97697.36
2019-01-13T22:29:09.661Z,97694.35
2019-01-13T22:31:40.727Z,97693.33
2019-01-13T22:34:12.741Z,97688.73
2019-01-13T22:36:43.676Z,97689.05
2019-01-13T22:39:14.642Z,97696.34
2019-01-13T22:41:45.558Z,97690.66
2019-01-13T22:44:16.487Z,97691.04
2019-01-13T22:46:47.463Z,97692.38
2019-01-13T22:49:18.395Z,97702.99
2019-01-13T22:51:49.452Z,97699.92
2019-01-13T22:54:20.359Z,97699.92
2019-01-13T22:56:51.470Z,97714.30
2019-01-13T22:59:22.368Z,97710.91
2019-01-13T23:01:53.399Z,97701.52
2019-01-13T23:04:24.385Z,97710.78
2019-01-13T23:06:55.293Z,97705.93
2019-01-13T23:09:26.198Z,97709.52
2019-01-13T23:11:57.226Z,97707.72
2019-01-13T23:14:28.154Z,97707.40
2019-01-13T23:16:59.279Z,97708.16
2019-01-13T23:19:31.609Z,97707.52
2019-01-13T23:22:02.508Z,97705.09
2019-01-13T23:24:33.543Z,97711.42
2019-01-13T23:27:04.442Z,97700.16
2019-01-13T23:29:35.483Z,97704.70
2019-01-13T23:32:06.465Z,97710.39
2019-01-13T23:34:37.419Z,97708.54
2019-01-13T23:37:08.374Z,97709.17
2019-01-13T23:39:39.294Z,97707.00
2019-01-13T23:42:10.671Z,97710.20
2019-01-13T23:44:41.591Z,97725.61
2019-01-13T23:47:12.531Z,97720.43
2019-01-13T23:49:43.452Z,97725.09
2019-01-13T23:52:14.389Z,97722.60
2019-01-13T23:54:45.323Z,97736.22
2019-01-13T23:57:16.257Z,97728.36
2019-01-13T23:59:47.165Z,97741.40
